Time;durP1;ratioP1;P1;durP2;ratioP2;P2;SDS_P1;SDS_P2;PMS_P1;PMS_P2;Temp;Humidity;BMP_temperature;BMP_pressure;BME280_temperature;BME280_humidity;BME280_pressure;Samples;Min_cycle;Max_cycle;Signal;HPM_P1;HPM_P2
2023/05/18 00:01:07;;;;;;;11.27;3.50;;;7.00;65.70;;;;;;6311722;22;20017;-86
2023/05/18 00:03:32;;;;;;;10.57;2.70;;;7.00;66.10;;;;;;6310888;22;20023;-87
2023/05/18 00:06:03;;;;;;;8.63;2.90;;;7.00;66.20;;;;;;6311662;22;20338;-86
2023/05/18 00:08:35;;;;;;;11.43;3.17;;;7.00;66.30;;;;;;6283676;22;20094;-86
2023/05/18 00:11:02;;;;;;;9.40;2.60;;;7.00;66.70;;;;;;6286375;22;20072;-86
2023/05/18 00:13:28;;;;;;;10.70;3.60;;;7.00;66.50;;;;;;6284698;22;20022;-86
2023/05/18 00:15:54;;;;;;;10.00;3.10;;;7.00;66.50;;;;;;6311231;22;20026;-86
2023/05/18 00:18:22;;;;;;;9.53;3.37;;;7.00;66.70;;;;;;6309206;22;20325;-86
2023/05/18 00:20:49;;;;;;;13.23;3.40;;;7.00;66.80;;;;;;6260700;22;20076;-86
2023/05/18 00:23:15;;;;;;;8.87;3.43;;;6.90;67.00;;;;;;6310428;22;20011;-87
2023/05/18 00:25:41;;;;;;;10.80;3.37;;;7.00;67.20;;;;;;6260395;22;20019;-87
2023/05/18 00:28:07;;;;;;;8.03;2.97;;;7.00;67.00;;;;;;6308934;22;20019;-86
2023/05/18 00:30:33;;;;;;;8.73;3.40;;;7.00;67.10;;;;;;6285925;22;20145;-86
2023/05/18 00:32:59;;;;;;;12.23;3.30;;;6.90;67.10;;;;;;6284437;22;20045;-86
2023/05/18 00:35:25;;;;;;;9.00;3.00;;;7.00;67.50;;;;;;6285372;22;20025;-86
2023/05/18 00:37:50;;;;;;;7.83;2.73;;;6.90;67.30;;;;;;6283893;22;20011;-87
2023/05/18 00:40:16;;;;;;;10.70;3.03;;;6.90;67.10;;;;;;6286530;22;20014;-86
2023/05/18 00:42:42;;;;;;;13.67;3.77;;;6.90;66.90;;;;;;6310238;22;20015;-86
2023/05/18 00:45:08;;;;;;;12.50;3.60;;;6.90;67.10;;;;;;6311231;22;20091;-87
2023/05/18 00:47:34;;;;;;;11.07;3.30;;;6.90;67.30;;;;;;6309051;22;20034;-86
2023/05/18 00:50:00;;;;;;;9.43;3.10;;;6.90;67.60;;;;;;6311055;22;20483;-86
2023/05/18 00:52:27;;;;;;;12.27;3.57;;;6.90;67.30;;;;;;6284582;22;20019;-86
2023/05/18 00:54:53;;;;;;;10.83;3.40;;;6.90;67.10;;;;;;6285674;22;20007;-86
2023/05/18 00:57:19;;;;;;;9.10;3.20;;;6.90;67.10;;;;;;6308495;22;20011;-86
2023/05/18 00:59:45;;;;;;;13.90;3.20;;;6.90;67.10;;;;;;6285550;22;20091;-86
2023/05/18 01:02:13;;;;;;;11.63;3.57;;;6.90;67.50;;;;;;6285027;22;20099;-86
2023/05/18 01:04:40;;;;;;;11.20;2.80;;;6.90;68.00;;;;;;6285972;22;20017;-86
2023/05/18 01:07:06;;;;;;;9.30;3.03;;;6.90;68.00;;;;;;6309027;22;20011;-85
2023/05/18 01:09:33;;;;;;;9.47;3.30;;;6.90;68.00;;;;;;6312081;22;20321;-86
2023/05/18 01:12:06;;;;;;;9.03;3.13;;;6.90;68.00;;;;;;6285748;22;20007;-87
2023/05/18 01:14:58;;;;;;;9.60;2.43;;;6.90;67.60;;;;;;6310240;22;20019;-86
2023/05/18 01:17:46;;;;;;;14.87;3.37;;;6.90;67.30;;;;;;6308470;22;20018;-86
2023/05/18 01:20:32;;;;;;;11.43;3.13;;;6.90;67.60;;;;;;6310975;22;20019;-86
2023/05/18 01:23:24;;;;;;;8.47;2.70;;;6.90;68.20;;;;;;6310350;22;20021;-86
2023/05/18 01:25:53;;;;;;;11.80;2.80;;;6.90;67.90;;;;;;6311477;22;20011;-86
2023/05/18 01:28:25;;;;;;;13.23;2.90;;;6.90;67.50;;;;;;6309204;22;20019;-86
2023/05/18 01:30:51;;;;;;;11.80;3.60;;;6.90;67.50;;;;;;6311203;22;20502;-86
2023/05/18 01:33:17;;;;;;;9.97;3.00;;;6.90;67.70;;;;;;6258700;22;20047;-86
2023/05/18 01:35:49;;;;;;;9.30;2.77;;;6.90;67.70;;;;;;6311042;22;20015;-87
2023/05/18 01:38:26;;;;;;;10.27;2.67;;;6.90;67.80;;;;;;6310272;22;20090;-87
2023/05/18 01:41:10;;;;;;;11.77;3.33;;;6.90;67.90;;;;;;6310595;22;20084;-86
2023/05/18 01:43:41;;;;;;;7.77;2.83;;;6.90;68.20;;;;;;6310204;22;20019;-86
2023/05/18 01:46:33;;;;;;;12.63;3.30;;;6.90;67.90;;;;;;6311847;22;20011;-88
2023/05/18 01:49:04;;;;;;;11.85;2.60;;;6.90;68.00;;;;;;6311917;22;20023;-87
2023/05/18 01:51:32;;;;;;;;;;;6.90;67.90;;;;;;6313493;22;20019;-87
2023/05/18 01:54:04;;;;;;;11.03;2.77;;;6.90;69.10;;;;;;6312087;22;20016;-85
2023/05/18 01:56:33;;;;;;;8.37;3.37;;;6.90;68.20;;;;;;6285625;22;20019;-87
2023/05/18 01:58:59;;;;;;;7.83;3.27;;;6.90;68.00;;;;;;6311734;22;20019;-86
2023/05/18 02:01:25;;;;;;;9.93;3.10;;;6.90;68.10;;;;;;6313051;22;20418;-86
2023/05/18 02:03:51;;;;;;;9.97;3.27;;;6.90;68.30;;;;;;6286039;22;20026;-86
2023/05/18 02:06:17;;;;;;;11.40;3.60;;;6.90;68.40;;;;;;6311955;22;20017;-88
2023/05/18 02:08:42;;;;;;;10.63;3.40;;;7.00;68.90;;;;;;6311174;22;20409;-85
2023/05/18 02:11:08;;;;;;;13.17;3.00;;;6.90;68.70;;;;;;6287246;22;20011;-86
2023/05/18 02:13:34;;;;;;;9.00;2.73;;;6.90;68.60;;;;;;6286115;22;20030;-86
2023/05/18 02:16:02;;;;;;;10.60;3.00;;;6.90;68.40;;;;;;6313065;22;20114;-86
2023/05/18 02:18:28;;;;;;;12.47;3.30;;;6.90;68.30;;;;;;6310393;22;20011;-86
2023/05/18 02:21:01;;;;;;;10.60;3.23;;;7.00;68.10;;;;;;6312561;22;20054;-86
2023/05/18 02:23:27;;;;;;;8.97;2.73;;;7.00;68.00;;;;;;6285863;22;20064;-86
2023/05/18 02:25:54;;;;;;;12.87;2.97;;;7.00;68.20;;;;;;6312807;22;20010;-86
2023/05/18 02:28:21;;;;;;;12.80;3.23;;;7.00;68.10;;;;;;6285083;22;20026;-86
2023/05/18 02:30:46;;;;;;;12.53;2.90;;;6.90;68.00;;;;;;6312468;22;20116;-86
2023/05/18 02:33:12;;;;;;;9.97;3.10;;;7.00;67.90;;;;;;6260402;22;20062;-86
2023/05/18 02:35:39;;;;;;;10.63;2.67;;;7.00;67.90;;;;;;6313061;22;20022;-86
2023/05/18 02:38:05;;;;;;;10.80;2.80;;;7.00;68.10;;;;;;6260677;22;20014;-86
2023/05/18 02:40:31;;;;;;;11.50;3.03;;;7.00;67.90;;;;;;6312515;22;20102;-86
2023/05/18 02:42:57;;;;;;;9.77;2.83;;;7.00;67.50;;;;;;6285542;22;20089;-87
2023/05/18 02:45:23;;;;;;;10.13;3.20;;;7.00;67.40;;;;;;6286196;22;20101;-86
2023/05/18 02:47:48;;;;;;;10.97;3.63;;;7.00;67.70;;;;;;6310508;22;20014;-86
2023/05/18 02:50:14;;;;;;;10.73;3.53;;;7.00;67.80;;;;;;6287350;22;20023;-86
2023/05/18 02:52:41;;;;;;;8.47;3.30;;;7.00;67.60;;;;;;6285672;22;20030;-86
2023/05/18 02:55:07;;;;;;;10.03;3.40;;;7.00;67.50;;;;;;6312327;22;20318;-86
2023/05/18 02:57:33;;;;;;;5.97;2.83;;;7.00;67.50;;;;;;6309545;22;20038;-86
2023/05/18 02:59:58;;;;;;;10.77;3.53;;;7.00;67.50;;;;;;6312063;22;20019;-86
2023/05/18 03:02:26;;;;;;;11.63;3.50;;;7.00;67.60;;;;;;6311020;22;20033;-88
2023/05/18 03:04:56;;;;;;;8.90;3.30;;;7.00;67.70;;;;;;6286949;22;20014;-86
2023/05/18 03:07:22;;;;;;;13.00;3.90;;;7.00;67.80;;;;;;6310043;22;20015;-86
2023/05/18 03:09:48;;;;;;;12.30;3.70;;;7.00;68.00;;;;;;6311804;22;20019;-86
2023/05/18 03:12:14;;;;;;;10.23;3.63;;;7.00;68.00;;;;;;6310671;22;20022;-86
2023/05/18 03:14:40;;;;;;;9.37;3.77;;;7.00;68.00;;;;;;6312316;22;20015;-87
2023/05/18 03:17:05;;;;;;;16.73;3.80;;;7.00;68.10;;;;;;6309867;22;20022;-87
2023/05/18 03:19:33;;;;;;;10.87;3.90;;;7.00;68.10;;;;;;6313068;22;20018;-86
2023/05/18 03:21:59;;;;;;;12.50;4.30;;;7.00;68.30;;;;;;6287037;22;20011;-87
2023/05/18 03:24:28;;;;;;;13.23;4.60;;;7.00;68.20;;;;;;6285765;22;20023;-86
2023/05/18 03:26:55;;;;;;;11.97;4.17;;;7.00;68.20;;;;;;6310784;22;20042;-88
2023/05/18 03:29:22;;;;;;;12.07;4.27;;;7.00;68.10;;;;;;6311630;22;20034;-86
2023/05/18 03:31:48;;;;;;;10.23;4.13;;;7.00;68.20;;;;;;6311769;22;20306;-86
2023/05/18 03:34:14;;;;;;;10.97;4.50;;;7.00;68.30;;;;;;6311206;22;20057;-86
2023/05/18 03:36:41;;;;;;;12.93;4.47;;;7.00;68.40;;;;;;6259423;22;20078;-86
2023/05/18 03:39:07;;;;;;;10.57;4.60;;;7.00;68.60;;;;;;6311806;22;20078;-86
2023/05/18 03:41:33;;;;;;;12.43;4.47;;;7.00;69.20;;;;;;6311875;22;20014;-87
2023/05/18 03:43:59;;;;;;;10.93;4.07;;;7.00;68.90;;;;;;6310929;22;20455;-86
2023/05/18 03:46:25;;;;;;;12.53;4.73;;;7.00;68.70;;;;;;6311775;22;20038;-88
2023/05/18 03:48:53;;;;;;;12.03;4.93;;;7.00;68.60;;;;;;6310580;22;20019;-86
2023/05/18 03:51:19;;;;;;;13.93;4.80;;;7.00;68.60;;;;;;6312595;22;20093;-87
2023/05/18 03:53:45;;;;;;;12.47;4.57;;;7.00;68.70;;;;;;6310790;22;20496;-88
2023/05/18 03:56:12;;;;;;;12.20;4.87;;;7.00;69.00;;;;;;6311696;22;20015;-89
2023/05/18 03:58:38;;;;;;;10.57;4.00;;;7.00;68.90;;;;;;6309428;22;20043;-87
2023/05/18 04:01:04;;;;;;;14.17;5.07;;;7.00;69.00;;;;;;6311776;22;20015;-86
2023/05/18 04:03:33;;;;;;;11.93;4.57;;;7.00;69.40;;;;;;6285251;22;20015;-88
2023/05/18 04:05:59;;;;;;;11.07;4.33;;;7.00;69.40;;;;;;6311981;22;20015;-86
2023/05/18 04:08:25;;;;;;;14.30;4.90;;;7.00;69.30;;;;;;6309864;22;20018;-86
2023/05/18 04:10:51;;;;;;;14.23;4.10;;;7.00;69.40;;;;;;6312733;22;20462;-86
2023/05/18 04:13:16;;;;;;;14.83;4.63;;;7.10;69.40;;;;;;6311036;22;20453;-87
2023/05/18 04:15:42;;;;;;;15.10;5.37;;;7.10;69.40;;;;;;6312277;22;20095;-86
2023/05/18 04:18:09;;;;;;;15.10;4.20;;;7.10;69.60;;;;;;6283310;22;20329;-87
2023/05/18 04:20:36;;;;;;;13.60;4.60;;;7.10;69.50;;;;;;6311791;22;20011;-86
2023/05/18 04:23:04;;;;;;;10.63;4.67;;;7.20;69.70;;;;;;6310570;22;20019;-86
2023/05/18 04:25:30;;;;;;;11.43;3.80;;;7.20;69.50;;;;;;6286386;22;20015;-86
2023/05/18 04:27:56;;;;;;;12.00;4.00;;;7.20;69.50;;;;;;6308804;22;20015;-87
2023/05/18 04:30:22;;;;;;;9.37;3.63;;;7.20;69.40;;;;;;6285758;22;20034;-86
2023/05/18 04:32:49;;;;;;;14.97;4.13;;;7.20;69.40;;;;;;6309741;22;20026;-87
2023/05/18 04:35:15;;;;;;;11.40;3.50;;;7.30;69.20;;;;;;6310994;22;20064;-89
2023/05/18 04:37:41;;;;;;;11.23;3.90;;;7.30;69.20;;;;;;6309642;22;20089;-86
2023/05/18 04:40:12;;;;;;;8.43;3.20;;;7.40;69.20;;;;;;6311194;22;20333;-86
2023/05/18 04:42:46;;;;;;;12.27;3.63;;;7.40;69.00;;;;;;6310413;22;20015;-87
2023/05/18 04:45:18;;;;;;;10.97;3.03;;;7.40;69.00;;;;;;6311838;22;20014;-87
2023/05/18 04:47:45;;;;;;;8.97;3.10;;;7.40;68.70;;;;;;6282115;22;20018;-87
2023/05/18 04:50:16;;;;;;;10.67;3.23;;;7.50;68.40;;;;;;6285065;22;20434;-86
2023/05/18 04:52:49;;;;;;;10.23;4.00;;;7.50;68.40;;;;;;6309756;22;20011;-87
2023/05/18 04:55:26;;;;;;;10.70;4.13;;;7.50;68.70;;;;;;6285351;22;20033;-87
2023/05/18 04:57:55;;;;;;;13.20;3.33;;;7.50;69.00;;;;;;6307952;22;20018;-86
2023/05/18 05:00:23;;;;;;;11.57;3.60;;;7.50;68.50;;;;;;6310930;22;20019;-86
2023/05/18 05:02:49;;;;;;;8.43;3.17;;;7.60;68.20;;;;;;6310006;22;20011;-86
2023/05/18 05:05:15;;;;;;;7.60;2.83;;;7.60;67.90;;;;;;6285184;22;20078;-87
2023/05/18 05:07:41;;;;;;;10.67;3.20;;;7.60;67.70;;;;;;6282880;22;20561;-86
2023/05/18 05:10:08;;;;;;;9.83;3.37;;;7.60;67.80;;;;;;6310473;22;20069;-86
2023/05/18 05:12:36;;;;;;;13.77;3.50;;;7.60;67.70;;;;;;6309742;22;20372;-86
2023/05/18 05:15:02;;;;;;;10.50;3.60;;;7.70;67.80;;;;;;6259873;22;20093;-87
2023/05/18 05:17:28;;;;;;;13.90;3.13;;;7.70;67.60;;;;;;6308818;22;20017;-86
2023/05/18 05:19:54;;;;;;;9.80;2.70;;;7.80;67.60;;;;;;6310506;22;20365;-86
2023/05/18 05:22:19;;;;;;;10.27;3.60;;;7.80;67.30;;;;;;6310525;22;20018;-87
2023/05/18 05:24:45;;;;;;;10.20;3.30;;;7.80;67.20;;;;;;6286828;22;20016;-87
2023/05/18 05:27:11;;;;;;;11.53;3.40;;;7.80;67.00;;;;;;6309826;22;20018;-87
2023/05/18 05:29:37;;;;;;;8.67;2.90;;;7.90;67.10;;;;;;6312952;22;20015;-87
2023/05/18 05:32:03;;;;;;;9.83;3.23;;;7.90;66.80;;;;;;6285776;22;20011;-85
2023/05/18 05:34:29;;;;;;;14.20;3.50;;;7.90;66.70;;;;;;6313927;22;20425;-86
2023/05/18 05:36:55;;;;;;;9.33;3.83;;;8.00;66.70;;;;;;6285725;22;20058;-89
2023/05/18 05:39:21;;;;;;;12.60;3.77;;;8.00;66.80;;;;;;6287039;22;20097;-87
2023/05/18 05:41:47;;;;;;;9.53;3.30;;;8.00;67.10;;;;;;6313352;22;20014;-86
2023/05/18 05:44:13;;;;;;;15.33;3.30;;;8.10;67.00;;;;;;6312102;22;20333;-89
2023/05/18 05:46:38;;;;;;;9.83;3.77;;;8.20;67.00;;;;;;6285645;22;20518;-86
2023/05/18 05:49:04;;;;;;;12.37;3.90;;;8.20;67.00;;;;;;6311766;22;20027;-86
2023/05/18 05:51:30;;;;;;;19.23;3.90;;;8.20;67.10;;;;;;6312919;22;20064;-86
2023/05/18 05:53:56;;;;;;;10.47;3.60;;;8.30;67.00;;;;;;6312034;22;20015;-86
2023/05/18 05:56:21;;;;;;;11.57;3.17;;;8.30;67.20;;;;;;6286025;22;20018;-88
2023/05/18 05:58:47;;;;;;;10.23;3.03;;;8.40;67.30;;;;;;6310295;22;20034;-86
2023/05/18 06:01:13;;;;;;;7.97;2.73;;;8.40;66.80;;;;;;6261441;22;20023;-86
2023/05/18 06:03:39;;;;;;;9.27;3.00;;;8.40;66.50;;;;;;6311306;22;20026;-86
2023/05/18 06:06:05;;;;;;;10.00;3.60;;;8.40;66.20;;;;;;6312474;22;20122;-88
2023/05/18 06:08:31;;;;;;;9.43;2.97;;;8.40;66.00;;;;;;6285063;22;20023;-87
2023/05/18 06:10:56;;;;;;;9.30;3.00;;;8.40;66.10;;;;;;6287459;22;20061;-86
2023/05/18 06:13:22;;;;;;;9.40;3.23;;;8.40;65.90;;;;;;6285705;22;20023;-86
2023/05/18 06:15:48;;;;;;;14.80;3.33;;;8.40;66.10;;;;;;6286210;22;20014;-86
2023/05/18 06:18:13;;;;;;;8.33;2.87;;;8.50;66.10;;;;;;6310549;22;20468;-86
2023/05/18 06:20:39;;;;;;;10.53;3.20;;;8.50;66.10;;;;;;6312638;22;20103;-86
2023/05/18 06:23:05;;;;;;;8.13;2.67;;;8.50;66.10;;;;;;6285873;22;20014;-87
2023/05/18 06:25:30;;;;;;;12.57;3.30;;;8.60;65.80;;;;;;6312187;22;20011;-88
2023/05/18 06:27:56;;;;;;;12.20;3.20;;;8.60;65.60;;;;;;6284758;22;20367;-87
2023/05/18 06:30:22;;;;;;;9.73;3.17;;;8.70;65.70;;;;;;6286854;22;20015;-86
2023/05/18 06:32:48;;;;;;;9.63;3.40;;;8.80;65.60;;;;;;6310692;22;20452;-87
2023/05/18 06:35:14;;;;;;;11.90;3.10;;;8.90;65.80;;;;;;6286489;22;20475;-86
2023/05/18 06:37:39;;;;;;;13.67;2.87;;;9.00;66.10;;;;;;6284797;22;20011;-87
2023/05/18 06:40:07;;;;;;;9.77;2.70;;;9.00;65.50;;;;;;6312401;22;20086;-87
2023/05/18 06:42:33;;;;;;;10.90;2.57;;;9.00;65.20;;;;;;6285907;22;20317;-87
2023/05/18 06:44:59;;;;;;;10.37;2.87;;;8.90;65.00;;;;;;6286863;22;20026;-86
2023/05/18 06:47:25;;;;;;;11.10;3.00;;;8.90;65.10;;;;;;6310480;22;20019;-86
2023/05/18 06:49:50;;;;;;;12.90;3.07;;;9.00;65.80;;;;;;6313095;22;20452;-86
2023/05/18 06:52:16;;;;;;;7.70;2.80;;;9.00;65.50;;;;;;6259647;22;20106;-87
2023/05/18 06:54:42;;;;;;;7.63;2.30;;;9.10;65.40;;;;;;6312353;22;20015;-87
2023/05/18 06:57:07;;;;;;;9.27;2.90;;;9.20;65.50;;;;;;6309238;22;20083;-88
2023/05/18 06:59:33;;;;;;;8.63;3.00;;;9.20;65.00;;;;;;6260323;22;20110;-86
2023/05/18 07:01:59;;;;;;;14.00;2.63;;;9.20;64.80;;;;;;6312237;22;20026;-87
2023/05/18 07:04:25;;;;;;;9.27;2.90;;;9.20;64.90;;;;;;6285271;22;20043;-87
2023/05/18 07:06:53;;;;;;;13.23;2.90;;;9.20;65.00;;;;;;6311083;22;20017;-87
2023/05/18 07:09:19;;;;;;;9.33;3.00;;;9.30;65.00;;;;;;6286144;22;20015;-86
2023/05/18 07:11:44;;;;;;;8.50;3.47;;;9.30;64.20;;;;;;6311975;22;20026;-87
2023/05/18 07:14:10;;;;;;;7.23;2.63;;;9.30;64.70;;;;;;6285638;22;20019;-88
2023/05/18 07:16:36;;;;;;;12.20;3.10;;;9.40;64.30;;;;;;6311320;22;20078;-89
2023/05/18 07:19:03;;;;;;;11.40;3.30;;;9.40;64.10;;;;;;6285022;22;20604;-87
2023/05/18 07:21:30;;;;;;;12.93;2.70;;;9.50;64.40;;;;;;6312928;22;20313;-87
2023/05/18 07:23:56;;;;;;;13.23;2.63;;;9.60;64.30;;;;;;6311274;22;20015;-88
2023/05/18 07:26:22;;;;;;;7.80;2.40;;;9.70;64.10;;;;;;6259530;22;20497;-89
2023/05/18 07:28:48;;;;;;;10.27;2.73;;;9.80;64.00;;;;;;6310744;22;20516;-89
2023/05/18 07:31:15;;;;;;;8.03;2.80;;;9.80;63.70;;;;;;6312959;22;20015;-89
2023/05/18 07:33:41;;;;;;;12.00;3.00;;;9.80;63.40;;;;;;6311218;22;20015;-88
2023/05/18 07:36:07;;;;;;;12.57;2.83;;;9.90;63.20;;;;;;6285301;22;20022;-96
2023/05/18 07:38:39;;;;;;;8.30;2.13;;;10.00;63.40;;;;;;6285326;22;20072;-96
2023/05/18 07:41:05;;;;;;;10.37;2.70;;;10.10;62.70;;;;;;6260558;22;20448;-88
2023/05/18 07:43:31;;;;;;;10.47;2.77;;;10.10;63.10;;;;;;6310805;22;20015;-87
2023/05/18 07:45:56;;;;;;;7.60;2.77;;;10.20;63.20;;;;;;6311309;22;20098;-88
2023/05/18 07:48:22;;;;;;;12.93;2.47;;;10.30;63.10;;;;;;6259091;22;20015;-88
2023/05/18 07:50:48;;;;;;;9.17;2.37;;;10.20;63.00;;;;;;6286494;22;20452;-88
2023/05/18 07:53:14;;;;;;;10.93;2.60;;;10.20;62.30;;;;;;6259273;22;20106;-88
2023/05/18 07:55:41;;;;;;;11.80;2.50;;;10.30;62.40;;;;;;6285943;22;20042;-91
2023/05/18 07:58:07;;;;;;;10.73;2.33;;;10.30;62.50;;;;;;6254149;22;20015;-89
2023/05/18 08:00:33;;;;;;;6.40;2.60;;;10.30;61.90;;;;;;6255527;22;20434;-88
2023/05/18 08:02:59;;;;;;;7.37;2.23;;;10.40;61.70;;;;;;6254539;22;20015;-87
2023/05/18 08:05:25;;;;;;;10.37;2.60;;;10.30;62.10;;;;;;6280560;22;20341;-88
2023/05/18 08:07:51;;;;;;;8.57;2.37;;;10.40;62.10;;;;;;6252781;22;20046;-88
2023/05/18 08:10:17;;;;;;;10.63;2.30;;;10.50;61.70;;;;;;6256251;22;20019;-89
2023/05/18 08:12:43;;;;;;;7.63;2.43;;;10.40;61.30;;;;;;6279030;22;20497;-87
2023/05/18 08:15:10;;;;;;;13.20;2.50;;;10.40;61.70;;;;;;6229693;22;20015;-88
2023/05/18 08:17:36;;;;;;;8.73;2.50;;;10.50;61.60;;;;;;6252519;22;20019;-88
2023/05/18 08:20:03;;;;;;;10.23;2.43;;;10.50;61.20;;;;;;6255398;22;20023;-89
2023/05/18 08:22:29;;;;;;;11.40;2.37;;;10.60;61.40;;;;;;6279260;22;20061;-88
2023/05/18 08:24:56;;;;;;;12.47;2.90;;;10.60;61.30;;;;;;6281508;22;20430;-89
2023/05/18 08:27:22;;;;;;;7.83;2.57;;;10.50;61.00;;;;;;6252660;22;21897;-88
2023/05/18 08:29:48;;;;;;;6.67;2.50;;;10.50;61.40;;;;;;6280948;22;20422;-89
2023/05/18 08:32:13;;;;;;;7.97;2.97;;;10.50;61.60;;;;;;6253943;22;20030;-88
2023/05/18 08:34:40;;;;;;;7.83;2.67;;;10.50;61.40;;;;;;6204847;22;20015;-89
2023/05/18 08:37:06;;;;;;;7.67;2.50;;;10.60;61.60;;;;;;6278793;22;20070;-88
2023/05/18 08:39:32;;;;;;;9.00;2.77;;;10.60;61.30;;;;;;6280563;22;20007;-89
2023/05/18 08:42:05;;;;;;;7.90;2.63;;;10.60;61.50;;;;;;6255803;22;20302;-89
2023/05/18 08:44:58;;;;;;;10.93;2.60;;;10.80;61.80;;;;;;6279265;22;20043;-88
2023/05/18 08:47:25;;;;;;;7.00;2.80;;;10.80;62.10;;;;;;6276552;22;20077;-89
2023/05/18 08:49:54;;;;;;;7.73;2.47;;;10.90;62.00;;;;;;6280435;22;20049;-89
2023/05/18 08:52:26;;;;;;;10.20;3.20;;;11.00;62.00;;;;;;6229296;22;20090;-88
2023/05/18 08:54:53;;;;;;;8.47;2.60;;;11.00;61.70;;;;;;6254497;22;20050;-89
2023/05/18 08:57:20;;;;;;;11.75;2.90;;;11.00;61.90;;;;;;6276858;22;20019;-88
2023/05/18 08:59:51;;;;;;;12.27;2.63;;;11.10;61.80;;;;;;6283449;22;20019;-88
2023/05/18 09:02:17;;;;;;;10.82;2.28;;;11.10;62.00;;;;;;6310331;22;20562;-89
2023/05/18 09:04:43;;;;;;;8.07;2.90;;;11.10;61.90;;;;;;6285796;22;20015;-89
2023/05/18 09:07:10;;;;;;;7.80;2.33;;;11.10;62.10;;;;;;6282793;22;20015;-88
2023/05/18 09:09:37;;;;;;;9.50;2.72;;;11.10;61.90;;;;;;6285197;22;20026;-89
2023/05/18 09:12:04;;;;;;;11.13;2.67;;;11.20;61.60;;;;;;6309688;22;20445;-89
2023/05/18 09:14:31;;;;;;;8.25;2.63;;;11.20;61.40;;;;;;6285554;22;20015;-88
2023/05/18 09:16:57;;;;;;;9.98;2.88;;;11.10;61.30;;;;;;6284736;22;20085;-90
2023/05/18 09:19:23;;;;;;;15.63;2.88;;;11.10;61.40;;;;;;6283804;22;20038;-88
2023/05/18 09:21:49;;;;;;;9.95;2.83;;;11.10;61.40;;;;;;6286581;22;20363;-87
2023/05/18 09:24:18;;;;;;;9.47;3.00;;;11.10;61.70;;;;;;6309740;22;20072;-88
2023/05/18 09:26:44;;;;;;;13.20;3.08;;;11.10;61.50;;;;;;6284232;22;20090;-90
2023/05/18 09:29:20;;;;;;;9.38;2.72;;;11.30;61.80;;;;;;6284529;22;20433;-88
2023/05/18 09:31:47;;;;;;;14.95;3.08;;;11.20;61.00;;;;;;6311428;22;20026;-88
2023/05/18 09:34:13;;;;;;;8.77;2.75;;;11.20;61.20;;;;;;6284426;22;20014;-88
2023/05/18 09:36:41;;;;;;;9.07;2.95;;;11.30;61.50;;;;;;6309728;22;20018;-89
2023/05/18 09:39:09;;;;;;;9.65;2.33;;;11.40;61.40;;;;;;6285527;22;20021;-89
2023/05/18 09:41:38;;;;;;;9.38;2.88;;;11.40;61.30;;;;;;6285227;22;20019;-88
2023/05/18 09:44:08;;;;;;;11.13;2.58;;;11.40;60.80;;;;;;6309968;22;20023;-90
2023/05/18 09:46:38;;;;;;;9.00;2.85;;;11.40;61.00;;;;;;6285152;22;20015;-89
2023/05/18 09:49:05;;;;;;;7.50;2.43;;;11.40;60.90;;;;;;6283726;22;20075;-90
2023/05/18 09:51:38;;;;;;;6.97;2.30;;;11.50;60.80;;;;;;6286635;22;20019;-86
2023/05/18 09:54:07;;;;;;;12.73;2.70;;;11.50;60.80;;;;;;6284160;22;20023;-89
2023/05/18 09:56:37;;;;;;;11.52;2.75;;;11.50;61.30;;;;;;6283135;22;20034;-89
2023/05/18 09:59:14;;;;;;;15.30;3.08;;;11.50;61.20;;;;;;6309018;22;20021;-88
2023/05/18 10:02:01;;;;;;;12.63;2.80;;;11.60;60.90;;;;;;6310483;22;20093;-89
2023/05/18 10:04:37;;;;;;;8.80;2.85;;;11.70;60.40;;;;;;6284562;22;20042;-89
2023/05/18 10:07:16;;;;;;;9.18;2.40;;;11.70;60.80;;;;;;6308037;22;20022;-86
2023/05/18 10:09:46;;;;;;;9.80;2.58;;;11.70;60.70;;;;;;6312485;22;20061;-89
2023/05/18 10:12:12;;;;;;;8.38;2.72;;;11.70;60.90;;;;;;6259879;22;20018;-89
2023/05/18 10:14:43;;;;;;;7.47;2.85;;;11.70;60.80;;;;;;6312354;22;20010;-89
2023/05/18 10:17:14;;;;;;;8.88;2.85;;;11.80;60.80;;;;;;6284575;22;20021;-90
2023/05/18 10:19:41;;;;;;;9.97;2.60;;;11.90;60.70;;;;;;6313697;22;20010;-88
2023/05/18 10:22:08;;;;;;;7.30;2.97;;;11.90;60.70;;;;;;6284883;22;20080;-90
2023/05/18 10:24:44;;;;;;;12.48;3.28;;;12.00;60.30;;;;;;6287320;22;20329;-90
2023/05/18 10:27:13;;;;;;;9.00;2.28;;;12.00;60.10;;;;;;6281364;22;20011;-90
2023/05/18 10:29:40;;;;;;;10.02;2.95;;;12.10;60.20;;;;;;6312705;22;20337;-87
2023/05/18 10:32:10;;;;;;;9.82;2.33;;;12.10;60.40;;;;;;6285260;22;20018;-89
2023/05/18 10:34:37;;;;;;;9.23;3.25;;;12.20;60.10;;;;;;6287252;22;20373;-90
2023/05/18 10:37:05;;;;;;;8.20;2.67;;;12.20;60.50;;;;;;6260525;22;20049;-89
2023/05/18 10:39:34;;;;;;;7.53;2.40;;;12.20;60.40;;;;;;6312838;22;20053;-88
2023/05/18 10:42:02;;;;;;;11.05;2.72;;;12.30;60.50;;;;;;6313471;22;20101;-89
2023/05/18 10:44:29;;;;;;;14.27;3.05;;;12.30;60.40;;;;;;6311231;22;20348;-89
2023/05/18 10:46:55;;;;;;;9.55;3.13;;;12.30;60.50;;;;;;6286083;22;20093;-88
2023/05/18 10:49:24;;;;;;;8.70;3.20;;;12.50;60.70;;;;;;6285667;22;20060;-89
2023/05/18 10:51:53;;;;;;;9.70;2.88;;;12.50;60.70;;;;;;6313364;22;20296;-89
2023/05/18 10:54:22;;;;;;;11.40;2.85;;;12.60;60.40;;;;;;6310800;22;20115;-90
2023/05/18 10:56:51;;;;;;;10.50;2.75;;;12.70;60.40;;;;;;6312106;22;20025;-90
2023/05/18 10:59:18;;;;;;;6.28;2.63;;;12.60;60.20;;;;;;6284238;22;20029;-89
2023/05/18 11:01:46;;;;;;;11.30;2.80;;;12.50;59.80;;;;;;6287220;22;20027;-89
2023/05/18 11:04:11;;;;;;;10.80;3.42;;;12.50;60.60;;;;;;6285816;22;20022;-88
2023/05/18 11:06:38;;;;;;;11.88;3.08;;;12.50;60.70;;;;;;6311480;22;20011;-88
2023/05/18 11:09:07;;;;;;;8.15;2.85;;;12.50;60.40;;;;;;6285489;22;20088;-87
2023/05/18 11:11:55;;;;;;;9.57;2.60;;;12.50;60.50;;;;;;6261888;22;20051;-89
2023/05/18 11:14:31;;;;;;;10.75;2.60;;;12.30;59.70;;;;;;6310883;22;20102;-89
2023/05/18 11:17:20;;;;;;;13.23;2.63;;;12.30;60.30;;;;;;6285339;22;20095;-90
2023/05/18 11:20:07;;;;;;;9.30;3.10;;;12.30;60.50;;;;;;6284823;22;20023;-90
2023/05/18 11:22:58;;;;;;;9.45;2.55;;;12.40;60.60;;;;;;6285259;22;20041;-88
2023/05/18 11:25:26;;;;;;;10.20;2.80;;;12.50;60.10;;;;;;6287001;22;20088;-88
2023/05/18 11:28:01;;;;;;;11.50;3.15;;;12.50;60.40;;;;;;6284356;22;20022;-89
2023/05/18 11:30:34;;;;;;;6.68;2.67;;;12.50;60.30;;;;;;6311987;22;20513;-90
2023/05/18 11:33:24;;;;;;;9.23;2.30;;;12.50;60.60;;;;;;6310800;22;20034;-88
2023/05/18 11:36:03;;;;;;;8.63;2.67;;;12.50;60.30;;;;;;6286335;22;20019;-90
2023/05/18 11:38:48;;;;;;;9.75;2.50;;;12.50;60.50;;;;;;6285201;22;20014;-88
2023/05/18 11:41:33;;;;;;;8.90;2.60;;;12.50;60.10;;;;;;6312061;22;20022;-87
2023/05/18 11:44:15;;;;;;;6.78;2.13;;;12.50;60.50;;;;;;6284733;22;20349;-90
2023/05/18 11:46:52;;;;;;;9.73;2.35;;;12.50;60.40;;;;;;6285658;22;20456;-86
2023/05/18 11:49:46;;;;;;;10.00;2.55;;;12.50;59.70;;;;;;6284772;22;20388;-87
2023/05/18 11:52:19;;;;;;;8.18;2.50;;;12.50;60.20;;;;;;6267912;22;20457;-90
2023/05/18 11:54:52;;;;;;;8.55;2.28;;;12.50;61.00;;;;;;6285704;22;20018;-91
2023/05/18 11:57:33;;;;;;;7.28;2.15;;;12.70;60.80;;;;;;6309816;22;20309;-89
2023/05/18 12:00:01;;;;;;;10.48;2.60;;;12.80;60.40;;;;;;6285901;22;20437;-90
2023/05/18 12:02:30;;;;;;;8.77;2.63;;;12.70;60.70;;;;;;6309972;22;20007;-91
2023/05/18 12:05:01;;;;;;;11.65;2.83;;;12.70;61.20;;;;;;6286319;22;20053;-89
2023/05/18 12:07:33;;;;;;;8.60;2.63;;;12.80;61.20;;;;;;6283730;22;20022;-90
2023/05/18 12:10:03;;;;;;;;;;;12.80;61.40;;;;;;6312706;22;20418;-89
2023/05/18 12:12:32;;;;;;;12.93;2.97;;;12.70;61.40;;;;;;6284545;22;19963;-89
2023/05/18 12:15:00;;;;;;;8.75;2.97;;;12.70;61.40;;;;;;6311483;22;20011;-90
2023/05/18 12:17:47;;;;;;;9.95;2.80;;;12.70;61.60;;;;;;6282919;22;20015;-89
2023/05/18 12:20:15;;;;;;;13.30;2.78;;;12.70;61.60;;;;;;6285629;22;20341;-90
2023/05/18 12:22:44;;;;;;;8.93;2.90;;;12.80;61.50;;;;;;6284465;22;20022;-91
2023/05/18 12:25:10;;;;;;;9.05;3.13;;;12.70;61.50;;;;;;6285767;22;20026;-90
2023/05/18 12:27:42;;;;;;;11.13;3.30;;;12.70;61.80;;;;;;6283274;22;20336;-89
2023/05/18 12:30:15;;;;;;;10.02;2.95;;;12.80;61.70;;;;;;6311759;22;20014;-90
2023/05/18 12:32:46;;;;;;;11.43;3.72;;;12.70;61.70;;;;;;6284447;22;20034;-88
2023/05/18 12:35:12;;;;;;;9.27;3.22;;;12.70;61.80;;;;;;6286093;22;20014;-89
2023/05/18 12:37:45;;;;;;;11.77;3.22;;;12.70;62.00;;;;;;6258708;22;20051;-90
2023/05/18 12:40:13;;;;;;;12.20;3.05;;;12.70;61.80;;;;;;6285410;22;20015;-89
2023/05/18 12:42:39;;;;;;;11.43;3.42;;;12.70;61.90;;;;;;6284242;22;20067;-88
2023/05/18 12:45:08;;;;;;;9.65;3.13;;;12.70;61.60;;;;;;6286429;22;20019;-91
2023/05/18 12:47:40;;;;;;;9.52;2.95;;;12.70;61.70;;;;;;6282301;22;20025;-90
2023/05/18 12:50:06;;;;;;;10.68;2.97;;;12.50;61.60;;;;;;6311389;22;20081;-90
2023/05/18 12:52:35;;;;;;;12.93;3.15;;;12.50;61.90;;;;;;6309805;22;20015;-91
2023/05/18 12:55:02;;;;;;;7.90;2.45;;;12.50;62.20;;;;;;6310822;22;20014;-90